createdAt,value
2022-11-04T00:02:05.276Z,88.24
2022-11-04T00:04:34.704Z,87.62
2022-11-04T00:07:22.713Z,87.71
2022-11-04T00:09:50.884Z,87.67
2022-11-04T00:12:26.623Z,87.79
2022-11-04T00:15:14.884Z,88.26
2022-11-04T00:17:41.788Z,87.79
2022-11-04T00:20:44.254Z,87.92
2022-11-04T00:23:29.868Z,88.45
2022-11-04T00:26:15.010Z,88.46
2022-11-04T00:28:45.853Z,88.22
2022-11-04T00:31:31.271Z,88.17
2022-11-04T00:33:59.941Z,88.38
2022-11-04T00:36:29.232Z,89.13
2022-11-04T00:38:57.136Z,88.13
2022-11-04T00:41:28.983Z,88.79
2022-11-04T00:43:58.289Z,88.41
2022-11-04T00:46:26.531Z,88.37
2022-11-04T00:48:54.520Z,87.92
2022-11-04T00:51:22.595Z,87.73
2022-11-04T00:53:52.243Z,87.21
2022-11-04T00:56:20.183Z,87.61
2022-11-04T00:58:50.103Z,86.92
2022-11-04T01:01:19.084Z,87.08
2022-11-04T01:03:48.063Z,86.96
2022-11-04T01:06:16.522Z,86.67
2022-11-04T01:08:44.469Z,86.04
2022-11-04T01:11:14.263Z,87.18
2022-11-04T01:13:42.642Z,86.14
2022-11-04T01:16:12.953Z,85.61
2022-11-04T01:18:41.550Z,84.90
2022-11-04T01:21:12.988Z,85.09
2022-11-04T01:23:41.884Z,84.47
2022-11-04T01:26:12.892Z,84.72
2022-11-04T01:28:42.449Z,83.32
2022-11-04T01:31:12.629Z,83.62
2022-11-04T01:33:40.915Z,82.43
2022-11-04T01:36:10.743Z,82.93
2022-11-04T01:38:38.682Z,83.04
2022-11-04T01:41:07.578Z,84.92
2022-11-04T01:43:50.459Z,85.37
2022-11-04T01:46:26.590Z,87.98
2022-11-04T01:48:57.537Z,89.33
2022-11-04T01:51:25.853Z,90.23
2022-11-04T01:53:57.113Z,90.36
2022-11-04T01:56:27.759Z,90.76
2022-11-04T01:59:01.448Z,89.79
2022-11-04T02:01:29.571Z,89.01
2022-11-04T02:04:21.077Z,88.49
2022-11-04T02:06:50.103Z,88.12
2022-11-04T02:09:19.676Z,89.26
2022-11-04T02:12:05.120Z,89.77
2022-11-04T02:14:37.024Z,90.04
2022-11-04T02:17:17.316Z,90.15
2022-11-04T02:20:01.230Z,90.57
2022-11-04T02:22:58.637Z,91.16
2022-11-04T02:25:38.093Z,89.80
2022-11-04T02:28:28.913Z,89.57
2022-11-04T02:31:08.643Z,89.09
2022-11-04T02:33:45.564Z,89.09
2022-11-04T02:36:27.762Z,89.53
2022-11-04T02:39:00.822Z,90.04
2022-11-04T02:41:39.377Z,90.72
2022-11-04T02:44:17.136Z,91.28
2022-11-04T02:46:52.001Z,91.21
2022-11-04T02:49:24.865Z,89.88
2022-11-04T02:51:59.961Z,89.68
2022-11-04T02:54:34.947Z,89.53
2022-11-04T02:57:08.091Z,88.59
2022-11-04T02:59:41.119Z,88.95
2022-11-04T03:02:14.918Z,90.62
2022-11-04T03:04:47.599Z,90.39
2022-11-04T03:07:18.974Z,90.15
2022-11-04T03:09:51.129Z,90.95
2022-11-04T03:12:25.950Z,89.84
2022-11-04T03:15:00.258Z,89.31
2022-11-04T03:17:36.614Z,88.96
2022-11-04T03:20:09.523Z,89.40
2022-11-04T03:22:39.032Z,89.25
2022-11-04T03:25:09.235Z,89.90
2022-11-04T03:27:47.032Z,90.15
2022-11-04T03:33:03.091Z,89.49
2022-11-04T03:35:31.435Z,89.86
2022-11-04T03:37:59.905Z,89.83
2022-11-04T03:40:28.203Z,89.76
2022-11-04T03:43:00.433Z,88.56
2022-11-04T03:45:28.965Z,89.20
2022-11-04T03:47:59.481Z,88.79
2022-11-04T03:50:30.178Z,88.31
2022-11-04T03:52:59.776Z,88.51
2022-11-04T03:55:39.023Z,88.10
2022-11-04T03:58:13.990Z,89.02
2022-11-04T04:00:49.520Z,89.75
2022-11-04T04:03:24.825Z,88.13
2022-11-04T04:05:56.459Z,89.35
2022-11-04T04:08:35.009Z,87.82
2022-11-04T04:11:10.337Z,86.71
2022-11-04T04:13:44.098Z,85.96
2022-11-04T04:16:16.452Z,85.57
2022-11-04T04:18:54.175Z,85.21
2022-11-04T04:21:30.255Z,84.42
2022-11-04T04:24:18.713Z,84.38
2022-11-04T04:27:05.873Z,84.48
2022-11-04T04:29:34.229Z,84.70
2022-11-04T04:32:04.275Z,84.90
2022-11-04T04:34:35.145Z,83.13
2022-11-04T04:37:06.650Z,83.73
2022-11-04T04:39:57.098Z,82.66
2022-11-04T04:42:43.191Z,81.65
2022-11-04T04:45:20.211Z,83.03
2022-11-04T04:47:48.410Z,82.46
2022-11-04T04:50:20.402Z,82.87
2022-11-04T04:52:51.052Z,82.52
2022-11-04T04:55:19.854Z,81.37
2022-11-04T04:57:47.780Z,81.95
2022-11-04T05:00:17.986Z,81.43
2022-11-04T05:02:46.216Z,81.46
2022-11-04T05:07:45.189Z,82.11
2022-11-04T05:10:15.290Z,83.35
2022-11-04T05:13:00.741Z,83.09
2022-11-04T05:15:30.301Z,84.78
2022-11-04T05:18:00.012Z,83.65
2022-11-04T05:20:29.062Z,83.54
2022-11-04T05:22:58.543Z,82.96
2022-11-04T05:25:26.515Z,82.23
2022-11-04T05:27:54.464Z,83.44
2022-11-04T05:30:22.372Z,83.12
2022-11-04T05:32:50.294Z,83.46
2022-11-04T05:35:18.306Z,82.86
2022-11-04T05:37:46.224Z,83.02
2022-11-04T05:40:15.739Z,83.60
2022-11-04T05:42:43.707Z,83.91
2022-11-04T05:45:12.176Z,83.95
2022-11-04T05:47:40.104Z,83.80
2022-11-04T05:50:08.764Z,83.36
2022-11-04T05:52:36.720Z,83.45
2022-11-04T05:55:04.962Z,83.58
2022-11-04T05:57:35.624Z,83.68
2022-11-04T06:00:04.326Z,83.97
2022-11-04T06:02:32.387Z,83.57
2022-11-04T06:05:00.559Z,83.42
2022-11-04T06:07:28.617Z,83.29
2022-11-04T06:09:56.530Z,83.70
2022-11-04T06:12:24.468Z,83.44
2022-11-04T06:14:53.789Z,83.55
2022-11-04T06:17:23.087Z,82.84
2022-11-04T06:19:51.120Z,81.58
2022-11-04T06:22:20.601Z,81.95
2022-11-04T06:24:48.527Z,81.54
2022-11-04T06:27:16.533Z,81.19
2022-11-04T06:29:44.465Z,81.04
2022-11-04T06:32:16.460Z,80.79
2022-11-04T06:34:44.626Z,80.97
2022-11-04T06:37:12.766Z,80.41
2022-11-04T06:39:40.864Z,80.11
2022-11-04T06:42:08.792Z,80.04
2022-11-04T06:44:37.176Z,80.08
2022-11-04T06:47:05.146Z,80.10
2022-11-04T06:49:34.606Z,77.42
2022-11-04T06:52:02.864Z,78.73
2022-11-04T06:54:30.776Z,75.33
2022-11-04T06:56:58.729Z,75.80
2022-11-04T06:59:26.642Z,73.39
2022-11-04T07:01:54.691Z,72.20
2022-11-04T07:04:22.761Z,71.50
2022-11-04T07:06:52.077Z,70.93
2022-11-04T07:09:20.063Z,68.91
2022-11-04T07:11:48.419Z,67.69
2022-11-04T07:14:16.340Z,66.97
2022-11-04T07:16:44.681Z,66.61
2022-11-04T07:19:12.596Z,65.53
2022-11-04T07:21:40.495Z,66.06
2022-11-04T07:24:10.144Z,65.79
2022-11-04T07:26:38.120Z,64.80
2022-11-04T07:29:06.885Z,63.92
2022-11-04T07:31:34.982Z,62.73
2022-11-04T07:34:03.242Z,61.91
2022-11-04T07:36:31.616Z,62.11
2022-11-04T07:38:59.552Z,61.05
2022-11-04T07:41:29.551Z,61.01
2022-11-04T07:43:59.000Z,59.80
2022-11-04T07:46:26.952Z,59.81
2022-11-04T07:48:58.151Z,59.29
2022-11-04T07:51:26.896Z,58.11
2022-11-04T07:53:56.112Z,58.19
2022-11-04T07:56:24.221Z,57.14
2022-11-04T07:58:53.804Z,56.31
2022-11-04T08:01:24.653Z,56.01
2022-11-04T08:03:53.140Z,55.09
2022-11-04T08:06:22.095Z,54.35
2022-11-04T08:08:50.161Z,55.28
2022-11-04T08:11:20.784Z,54.99
2022-11-04T08:13:48.977Z,54.64
2022-11-04T08:16:19.913Z,53.22
2022-11-04T08:18:48.775Z,53.48
2022-11-04T08:21:17.361Z,53.07
2022-11-04T08:23:46.252Z,51.89
2022-11-04T08:26:17.809Z,52.28
2022-11-04T08:28:46.213Z,51.19
2022-11-04T08:31:17.505Z,51.81
2022-11-04T08:33:47.138Z,49.40
2022-11-04T08:36:17.404Z,48.79
2022-11-04T08:38:45.805Z,49.80
2022-11-04T08:41:15.918Z,48.71
2022-11-04T08:43:44.096Z,49.27
2022-11-04T08:46:13.152Z,51.69
2022-11-04T08:48:43.866Z,53.94
2022-11-04T08:51:17.096Z,53.95
2022-11-04T08:53:45.525Z,53.92
2022-11-04T08:56:15.634Z,53.89
2022-11-04T08:58:43.720Z,53.28
2022-11-04T09:01:12.852Z,53.79
2022-11-04T09:03:42.641Z,54.50
2022-11-04T09:06:15.064Z,53.22
2022-11-04T09:08:43.571Z,53.15
2022-11-04T09:11:13.649Z,52.51
2022-11-04T09:13:41.865Z,53.12
2022-11-04T09:16:11.611Z,53.38
2022-11-04T09:18:39.884Z,52.95
2022-11-04T09:21:09.659Z,52.04
2022-11-04T09:23:39.442Z,53.04
2022-11-04T09:26:09.823Z,52.97
2022-11-04T09:28:37.866Z,52.61
2022-11-04T09:31:07.863Z,52.36
2022-11-04T09:33:35.821Z,52.21
2022-11-04T09:36:03.855Z,51.31
2022-11-04T09:38:31.819Z,51.63
2022-11-04T09:41:02.033Z,51.76
2022-11-04T09:43:38.584Z,52.28
2022-11-04T09:46:08.184Z,51.67
2022-11-04T09:48:41.920Z,50.97
2022-11-04T09:51:20.943Z,49.99
2022-11-04T09:54:01.994Z,50.74
2022-11-04T09:56:36.358Z,50.84
2022-11-04T09:59:05.674Z,49.81
2022-11-04T10:01:42.481Z,50.00
2022-11-04T10:04:22.827Z,49.74
2022-11-04T10:07:17.068Z,49.88
2022-11-04T10:09:56.319Z,49.30
2022-11-04T10:12:43.174Z,49.69
2022-11-04T10:15:35.018Z,49.53
2022-11-04T10:18:19.445Z,49.86
2022-11-04T10:20:58.265Z,49.39
2022-11-04T10:23:34.116Z,48.98
2022-11-04T10:26:11.067Z,48.65
2022-11-04T10:28:44.968Z,48.76
2022-11-04T10:31:15.779Z,49.36
2022-11-04T10:33:48.453Z,48.50
2022-11-04T10:36:18.334Z,48.82
2022-11-04T10:38:49.844Z,47.76
2022-11-04T10:41:26.593Z,48.40
2022-11-04T10:44:02.886Z,48.18
2022-11-04T10:46:45.009Z,48.31
2022-11-04T10:50:07.144Z,47.65
2022-11-04T10:52:37.897Z,48.32
2022-11-04T10:55:16.966Z,48.13
2022-11-04T10:57:45.016Z,47.78
2022-11-04T11:00:35.051Z,47.69
2022-11-04T11:03:03.009Z,48.15
2022-11-04T11:05:31.708Z,47.09
2022-11-04T11:07:59.982Z,47.51
2022-11-04T11:10:30.859Z,47.13
2022-11-04T11:13:02.214Z,48.20
2022-11-04T11:15:35.215Z,47.32
2022-11-04T11:18:16.428Z,47.50
2022-11-04T11:20:49.372Z,47.49
2022-11-04T11:23:41.807Z,47.54
2022-11-04T11:26:13.075Z,46.87
2022-11-04T11:28:42.816Z,47.05
2022-11-04T11:31:23.360Z,47.24
2022-11-04T11:33:56.197Z,47.51
2022-11-04T11:36:26.676Z,47.31
2022-11-04T11:39:07.491Z,47.39
2022-11-04T11:41:52.884Z,47.20
2022-11-04T11:44:27.335Z,47.22
2022-11-04T11:47:01.795Z,47.30
2022-11-04T11:49:32.762Z,46.64
2022-11-04T11:52:24.955Z,46.77
2022-11-04T11:54:55.977Z,47.50
2022-11-04T11:57:37.111Z,46.64
2022-11-04T12:03:07.838Z,46.62
2022-11-04T12:11:46.459Z,46.47
2022-11-04T12:14:20.103Z,46.93
2022-11-04T12:16:55.681Z,47.28
2022-11-04T12:19:57.060Z,46.80
2022-11-04T12:22:39.096Z,47.15
2022-11-04T12:25:18.314Z,47.21
2022-11-04T12:27:53.520Z,47.19
2022-11-04T12:30:31.248Z,47.88
2022-11-04T12:33:18.399Z,47.83
2022-11-04T12:36:00.799Z,47.51
2022-11-04T12:38:58.602Z,47.42
2022-11-04T12:42:06.271Z,47.79
2022-11-04T12:44:33.486Z,47.63
2022-11-04T12:47:16.749Z,47.19
2022-11-04T12:50:04.726Z,47.39
2022-11-04T12:52:57.378Z,47.92
2022-11-04T12:55:40.946Z,48.09
2022-11-04T12:58:24.266Z,48.22
2022-11-04T13:00:59.915Z,48.04
2022-11-04T13:03:34.360Z,47.91
2022-11-04T13:06:06.143Z,48.03
2022-11-04T13:08:39.885Z,47.85
2022-11-04T13:11:22.857Z,48.21
2022-11-04T13:14:01.617Z,48.15
2022-11-04T13:16:32.070Z,48.75
2022-11-04T13:19:01.104Z,48.03
2022-11-04T13:21:35.135Z,48.31
2022-11-04T13:24:07.282Z,48.49
2022-11-04T13:26:35.221Z,48.26
2022-11-04T13:29:09.324Z,48.28
2022-11-04T13:31:49.163Z,48.43
2022-11-04T13:34:25.921Z,48.39
2022-11-04T13:37:06.118Z,48.59
2022-11-04T13:39:38.157Z,48.89
2022-11-04T13:42:27.449Z,48.90
2022-11-04T13:44:58.140Z,49.19
2022-11-04T13:47:32.088Z,49.18
2022-11-04T13:50:00.171Z,49.35
2022-11-04T13:52:31.446Z,49.50
2022-11-04T13:55:04.121Z,49.72
2022-11-04T13:57:35.059Z,50.44
2022-11-04T14:00:22.542Z,50.49
2022-11-04T14:02:51.673Z,50.09
2022-11-04T14:06:07.006Z,50.42
2022-11-04T14:08:35.853Z,50.67
2022-11-04T14:11:13.099Z,51.16
2022-11-04T14:14:07.303Z,50.93
2022-11-04T14:16:43.471Z,51.07
2022-11-04T14:19:59.910Z,51.45
2022-11-04T14:22:33.514Z,51.91
2022-11-04T14:25:04.667Z,51.62
2022-11-04T14:27:40.622Z,51.81
2022-11-04T14:30:44.013Z,51.96
2022-11-04T14:33:24.436Z,52.68
2022-11-04T14:35:54.412Z,52.27
2022-11-04T14:38:28.806Z,52.76
2022-11-04T14:41:23.714Z,53.33
2022-11-04T14:43:56.052Z,53.97
2022-11-04T14:46:29.569Z,54.31
2022-11-04T14:49:01.869Z,54.83
2022-11-04T14:51:31.929Z,54.94
2022-11-04T14:54:06.541Z,55.88
2022-11-04T14:56:34.796Z,56.50
2022-11-04T14:59:07.021Z,56.88
2022-11-04T15:01:39.129Z,57.31
2022-11-04T15:04:19.548Z,57.30
2022-11-04T15:06:55.836Z,58.04
2022-11-04T15:09:25.661Z,58.58
2022-11-04T15:12:17.028Z,58.92
2022-11-04T15:14:46.565Z,59.07
2022-11-04T15:17:19.549Z,59.87
2022-11-04T15:19:52.034Z,59.55
2022-11-04T15:22:20.773Z,60.95
2022-11-04T15:24:50.672Z,60.99
2022-11-04T15:27:20.444Z,61.00
2022-11-04T15:29:57.283Z,60.98
2022-11-04T15:32:26.215Z,61.30
2022-11-04T15:34:55.486Z,61.38
2022-11-04T15:37:24.798Z,61.86
2022-11-04T15:39:56.391Z,63.88
2022-11-04T15:42:39.988Z,63.42
2022-11-04T15:45:29.663Z,64.38
2022-11-04T15:48:23.410Z,63.93
2022-11-04T15:50:56.328Z,64.68
2022-11-04T15:53:24.359Z,64.49
2022-11-04T15:55:53.177Z,64.89
2022-11-04T15:58:21.342Z,65.03
2022-11-04T16:00:56.617Z,65.01
2022-11-04T16:03:25.625Z,65.22
2022-11-04T16:06:05.000Z,65.27
2022-11-04T16:08:33.907Z,65.39
2022-11-04T16:11:17.519Z,65.03
2022-11-04T16:13:47.248Z,65.06
2022-11-04T16:16:24.456Z,64.89
2022-11-04T16:18:55.131Z,65.08
2022-11-04T16:21:27.113Z,65.18
2022-11-04T16:24:01.906Z,65.21
2022-11-04T16:26:33.347Z,65.16
2022-11-04T16:29:02.516Z,65.38
2022-11-04T16:31:36.692Z,65.42
2022-11-04T16:34:05.428Z,65.36
2022-11-04T16:36:35.768Z,65.49
2022-11-04T16:39:08.680Z,65.65
2022-11-04T16:41:38.989Z,65.36
2022-11-04T16:44:17.054Z,65.29
2022-11-04T16:46:46.607Z,64.89
2022-11-04T16:49:16.558Z,65.02
2022-11-04T16:51:44.616Z,65.03
2022-11-04T16:54:12.812Z,65.25
2022-11-04T16:56:41.544Z,65.52
2022-11-04T16:59:11.636Z,65.69
2022-11-04T17:01:40.768Z,66.87
2022-11-04T17:04:10.927Z,67.57
2022-11-04T17:06:39.739Z,67.35
2022-11-04T17:09:18.352Z,68.09
2022-11-04T17:11:46.299Z,68.45
2022-11-04T17:14:14.279Z,67.58
2022-11-04T17:16:42.201Z,67.35
2022-11-04T17:19:15.642Z,67.81
2022-11-04T17:21:44.657Z,67.81
2022-11-04T17:24:12.988Z,68.04
2022-11-04T17:26:41.104Z,67.75
2022-11-04T17:29:14.416Z,68.16
2022-11-04T17:31:45.276Z,69.27
2022-11-04T17:34:14.737Z,69.46
2022-11-04T17:36:42.836Z,71.40
2022-11-04T17:39:10.759Z,73.60
2022-11-04T17:41:55.877Z,74.37
2022-11-04T17:44:23.788Z,73.51
2022-11-04T17:46:51.720Z,72.45
2022-11-04T17:49:22.643Z,72.90
2022-11-04T17:51:53.776Z,72.40
2022-11-04T17:54:22.690Z,71.51
2022-11-04T17:56:51.028Z,70.60
2022-11-04T17:59:19.257Z,70.14
2022-11-04T18:01:47.597Z,70.20
2022-11-04T18:04:17.221Z,68.96
2022-11-04T18:06:46.653Z,68.70
2022-11-04T18:09:15.599Z,68.07
2022-11-04T18:12:01.282Z,67.44
2022-11-04T18:14:29.225Z,66.94
2022-11-04T18:16:57.184Z,67.45
2022-11-04T18:19:26.722Z,65.91
2022-11-04T18:21:56.187Z,66.11
2022-11-04T18:24:24.835Z,67.14
2022-11-04T18:26:53.412Z,66.36
2022-11-04T18:29:23.012Z,66.13
2022-11-04T18:31:51.107Z,66.18
2022-11-04T18:34:20.516Z,66.86
2022-11-04T18:36:49.364Z,66.23
2022-11-04T18:39:19.816Z,67.43
2022-11-04T18:41:48.097Z,67.89
2022-11-04T18:44:18.118Z,67.75
2022-11-04T18:46:47.014Z,68.34
2022-11-04T18:49:15.519Z,68.35
2022-11-04T18:51:43.661Z,67.31
2022-11-04T18:54:12.687Z,67.60
2022-11-04T18:56:42.720Z,68.03
2022-11-04T18:59:11.476Z,68.24
2022-11-04T19:01:39.704Z,68.07
2022-11-04T19:04:08.158Z,68.07
2022-11-04T19:06:38.692Z,67.35
2022-11-04T19:09:32.514Z,66.93
2022-11-04T19:12:12.420Z,67.12
2022-11-04T19:14:40.478Z,67.18
2022-11-04T19:17:08.447Z,67.19
2022-11-04T19:19:36.420Z,67.77
2022-11-04T19:22:04.612Z,68.05
2022-11-04T19:24:32.624Z,68.19
2022-11-04T19:27:01.948Z,67.29
2022-11-04T19:29:30.048Z,67.35
2022-11-04T19:31:58.004Z,67.31
2022-11-04T19:34:25.953Z,67.29
2022-11-04T19:36:54.059Z,66.64
2022-11-04T19:39:21.991Z,66.48
2022-11-04T19:42:07.525Z,66.32
2022-11-04T19:44:36.805Z,66.90
2022-11-04T19:47:04.853Z,67.58
2022-11-04T19:49:32.757Z,67.45
2022-11-04T19:52:00.720Z,68.52
2022-11-04T19:54:29.502Z,70.02
2022-11-04T19:56:58.093Z,70.34
2022-11-04T19:59:26.016Z,69.13
2022-11-04T20:01:55.470Z,69.21
2022-11-04T20:04:23.450Z,68.33
2022-11-04T20:06:51.373Z,68.65
2022-11-04T20:09:20.390Z,68.46
2022-11-04T20:12:05.755Z,68.81
2022-11-04T20:14:33.701Z,67.88
2022-11-04T20:17:03.184Z,67.65
2022-11-04T20:19:31.133Z,67.01
2022-11-04T20:21:59.088Z,67.34
2022-11-04T20:24:27.004Z,67.70
2022-11-04T20:26:54.932Z,67.63
2022-11-04T20:29:22.871Z,67.71
2022-11-04T20:31:50.965Z,68.09
2022-11-04T20:34:20.265Z,67.43
2022-11-04T20:36:48.188Z,66.90
2022-11-04T20:39:17.999Z,66.78
2022-11-04T20:41:46.222Z,67.11
2022-11-04T20:44:15.189Z,67.85
2022-11-04T20:46:44.238Z,67.78
2022-11-04T20:49:13.466Z,67.97
2022-11-04T20:51:50.072Z,67.86
2022-11-04T20:54:20.961Z,67.69
2022-11-04T20:56:48.972Z,68.22
2022-11-04T20:59:17.065Z,68.94
2022-11-04T21:01:48.434Z,68.07
2022-11-04T21:04:19.405Z,67.69
2022-11-04T21:06:50.569Z,68.72
2022-11-04T21:09:20.316Z,68.67
2022-11-04T21:11:49.063Z,68.58
2022-11-04T21:14:19.636Z,68.89
2022-11-04T21:16:48.715Z,68.81
2022-11-04T21:19:17.016Z,69.07
2022-11-04T21:21:45.163Z,68.95
2022-11-04T21:24:16.452Z,68.83
2022-11-04T21:26:45.676Z,69.15
2022-11-04T21:29:15.360Z,69.27
2022-11-04T21:31:44.032Z,69.97
2022-11-04T21:34:12.531Z,69.87
2022-11-04T21:36:40.967Z,70.26
2022-11-04T21:39:11.080Z,69.57
2022-11-04T21:41:40.647Z,69.52
2022-11-04T21:44:09.784Z,69.97
2022-11-04T21:46:38.449Z,70.83
2022-11-04T21:49:06.674Z,70.99
2022-11-04T21:51:35.461Z,70.78
2022-11-04T21:54:06.510Z,71.00
2022-11-04T21:56:34.416Z,72.05
2022-11-04T21:59:05.810Z,72.92
2022-11-04T22:01:34.436Z,73.37
2022-11-04T22:04:03.377Z,73.03
2022-11-04T22:06:35.138Z,72.98
2022-11-04T22:09:06.210Z,72.31
2022-11-04T22:11:36.674Z,72.57
2022-11-04T22:14:08.528Z,72.33
2022-11-04T22:16:38.837Z,72.04
2022-11-04T22:19:09.015Z,71.01
2022-11-04T22:21:40.604Z,71.54
2022-11-04T22:24:11.179Z,71.55
2022-11-04T22:26:40.160Z,72.17
2022-11-04T22:29:09.667Z,72.76
2022-11-04T22:31:39.253Z,73.25
2022-11-04T22:34:07.206Z,73.21
2022-11-04T22:36:35.581Z,73.22
2022-11-04T22:39:03.559Z,73.42
2022-11-04T22:41:33.224Z,73.51
2022-11-04T22:44:01.195Z,74.37
2022-11-04T22:46:32.032Z,75.14
2022-11-04T22:49:00.697Z,75.48
2022-11-04T22:51:29.835Z,75.87
2022-11-04T22:54:01.593Z,76.94
2022-11-04T22:56:34.930Z,77.08
2022-11-04T22:59:02.877Z,77.25
2022-11-04T23:01:34.002Z,77.27
2022-11-04T23:04:02.780Z,77.36
2022-11-04T23:06:31.117Z,77.96
2022-11-04T23:09:00.662Z,77.77
2022-11-04T23:11:47.396Z,79.27
2022-11-04T23:14:49.381Z,80.40
2022-11-04T23:17:38.028Z,81.11
2022-11-04T23:20:09.887Z,82.06
2022-11-04T23:22:55.317Z,83.71
2022-11-04T23:25:23.384Z,83.84
2022-11-04T23:28:10.526Z,83.12
2022-11-04T23:30:40.181Z,81.33
2022-11-04T23:33:11.831Z,81.91
2022-11-04T23:35:59.311Z,82.41
2022-11-04T23:38:29.628Z,84.18
2022-11-04T23:41:16.844Z,84.04
2022-11-04T23:43:44.890Z,83.45
2022-11-04T23:46:30.564Z,84.49
2022-11-04T23:49:17.521Z,84.01
2022-11-04T23:52:03.013Z,84.41
2022-11-04T23:54:48.338Z,85.17
2022-11-04T23:57:35.712Z,86.86
